createdAt,value
2023-01-26T00:02:04.553Z,102046.97
2023-01-26T00:04:31.483Z,102041.94
2023-01-26T00:06:58.340Z,102036.31
2023-01-26T00:09:25.225Z,102046.13
2023-01-26T00:11:52.190Z,102034.50
2023-01-26T00:14:19.037Z,102028.59
2023-01-26T00:16:46.007Z,102025.47
2023-01-26T00:19:12.875Z,102028.09
2023-01-26T00:21:42.041Z,102035.22
2023-01-26T00:24:09.053Z,102033.13
2023-01-26T00:26:36.076Z,102028.53
2023-01-26T00:29:05.427Z,102034.78
2023-01-26T00:31:34.804Z,102024.06
2023-01-26T00:34:03.999Z,102029.53
2023-01-26T00:36:30.955Z,102015.41
2023-01-26T00:38:57.857Z,102022.72
2023-01-26T00:41:45.628Z,102023.50
2023-01-26T00:44:14.793Z,102015.03
2023-01-26T00:46:41.802Z,102016.25
2023-01-26T00:49:11.369Z,102021.06
2023-01-26T00:51:38.390Z,102018.81
2023-01-26T00:54:08.701Z,102013.38
2023-01-26T00:56:36.087Z,102018.16
2023-01-26T00:59:03.129Z,102011.94
2023-01-26T01:01:30.091Z,102012.34
2023-01-26T01:04:01.597Z,102007.03
2023-01-26T01:06:28.512Z,102005.22
2023-01-26T01:08:55.419Z,102002.22
2023-01-26T01:11:24.509Z,101991.97
2023-01-26T01:13:53.654Z,101994.63
2023-01-26T01:16:25.516Z,101987.66
2023-01-26T01:18:58.910Z,101979.72
2023-01-26T01:21:25.995Z,101984.16
2023-01-26T01:23:57.983Z,101982.00
2023-01-26T01:26:24.947Z,101974.09
2023-01-26T01:28:58.297Z,101971.28
2023-01-26T01:31:26.305Z,101986.56
2023-01-26T01:33:54.060Z,101984.97
2023-01-26T01:36:21.505Z,101977.19
2023-01-26T01:38:50.887Z,101980.09
2023-01-26T01:41:21.409Z,101975.19
2023-01-26T01:43:51.227Z,101981.38
2023-01-26T01:46:32.812Z,101980.72
2023-01-26T01:49:17.769Z,101975.88
2023-01-26T01:52:04.409Z,101973.06
2023-01-26T01:54:54.608Z,101969.06
2023-01-26T01:57:30.049Z,101963.38
2023-01-26T02:00:10.018Z,101972.97
2023-01-26T02:02:38.509Z,101978.22
2023-01-26T02:05:21.557Z,101958.94
2023-01-26T02:07:52.897Z,101966.75
2023-01-26T02:10:20.812Z,101956.47
2023-01-26T02:13:01.963Z,101952.53
2023-01-26T02:15:28.908Z,101951.09
2023-01-26T02:17:56.144Z,101950.47
2023-01-26T02:20:38.517Z,101943.47
2023-01-26T02:23:31.778Z,101952.91
2023-01-26T02:26:12.640Z,101945.09
2023-01-26T02:28:40.683Z,101952.50
2023-01-26T02:31:08.661Z,101935.78
2023-01-26T02:33:38.178Z,101939.47
2023-01-26T02:36:12.117Z,101930.81
2023-01-26T02:38:47.030Z,101934.53
2023-01-26T02:41:35.793Z,101931.63
2023-01-26T02:44:06.934Z,101928.63
2023-01-26T02:46:34.085Z,101926.47
2023-01-26T02:49:19.928Z,101924.28
2023-01-26T02:51:48.916Z,101920.56
2023-01-26T02:54:41.800Z,101923.31
2023-01-26T02:57:08.766Z,101926.81
2023-01-26T02:59:40.222Z,101921.09
2023-01-26T03:02:07.493Z,101911.03
2023-01-26T03:04:36.913Z,101918.91
2023-01-26T03:07:03.914Z,101915.22
2023-01-26T03:09:30.820Z,101908.84
2023-01-26T03:11:57.740Z,101912.94
2023-01-26T03:14:24.687Z,101909.78
2023-01-26T03:16:51.593Z,101919.53
2023-01-26T03:19:36.787Z,101912.31
2023-01-26T03:22:22.155Z,101907.94
2023-01-26T03:25:09.639Z,101915.78
2023-01-26T03:27:48.552Z,101912.34
2023-01-26T03:30:19.012Z,101909.34
2023-01-26T03:32:45.966Z,101914.81
2023-01-26T03:35:15.972Z,101904.91
2023-01-26T03:37:43.892Z,101904.75
2023-01-26T03:40:33.643Z,101912.06
2023-01-26T03:43:28.421Z,101920.91
2023-01-26T03:46:13.717Z,101908.59
2023-01-26T03:49:02.278Z,101903.81
2023-01-26T03:51:49.948Z,101905.38
2023-01-26T03:54:37.895Z,101906.78
2023-01-26T03:57:09.905Z,101911.88
2023-01-26T03:59:39.410Z,101904.41
2023-01-26T04:02:30.752Z,101921.97
2023-01-26T04:05:18.821Z,101905.44
2023-01-26T04:08:06.764Z,101918.53
2023-01-26T04:10:33.625Z,101909.22
2023-01-26T04:13:19.069Z,101904.44
2023-01-26T04:16:07.568Z,101897.00
2023-01-26T04:18:53.276Z,101908.69
2023-01-26T04:21:29.316Z,101900.91
2023-01-26T04:23:59.419Z,101899.41
2023-01-26T04:26:34.799Z,101894.78
2023-01-26T04:29:08.685Z,101900.38
2023-01-26T04:31:39.048Z,101890.47
2023-01-26T04:34:11.918Z,101893.75
2023-01-26T04:36:41.872Z,101886.16
2023-01-26T04:39:09.715Z,101887.34
2023-01-26T04:41:36.604Z,101880.63
2023-01-26T04:44:03.836Z,101890.63
2023-01-26T04:46:33.853Z,101880.84
2023-01-26T04:49:00.731Z,101880.22
2023-01-26T04:51:30.703Z,101882.19
2023-01-26T04:54:02.581Z,101871.56
2023-01-26T04:56:35.308Z,101867.38
2023-01-26T04:59:09.710Z,101867.31
2023-01-26T05:01:36.956Z,101864.19
2023-01-26T05:04:05.671Z,101867.34
2023-01-26T05:06:32.730Z,101864.91
2023-01-26T05:09:02.093Z,101858.28
2023-01-26T05:11:28.961Z,101851.53
2023-01-26T05:13:55.826Z,101858.25
2023-01-26T05:16:22.770Z,101864.06
2023-01-26T05:18:49.743Z,101859.59
2023-01-26T05:21:19.300Z,101857.22
2023-01-26T05:23:49.277Z,101855.97
2023-01-26T05:26:16.285Z,101851.84
2023-01-26T05:28:45.556Z,101856.31
2023-01-26T05:31:14.618Z,101859.75
2023-01-26T05:33:44.110Z,101856.34
2023-01-26T05:36:18.081Z,101854.03
2023-01-26T05:38:50.397Z,101865.00
2023-01-26T05:41:19.384Z,101859.75
2023-01-26T05:43:48.427Z,101867.53
2023-01-26T05:46:17.491Z,101861.41
2023-01-26T05:48:46.448Z,101862.69
2023-01-26T05:51:15.372Z,101866.38
2023-01-26T05:53:42.279Z,101867.81
2023-01-26T05:56:13.664Z,101863.03
2023-01-26T05:58:42.744Z,101873.06
2023-01-26T06:01:12.159Z,101861.88
2023-01-26T06:03:41.495Z,101868.16
2023-01-26T06:06:08.363Z,101859.72
2023-01-26T06:08:35.298Z,101863.00
2023-01-26T06:11:02.171Z,101864.59
2023-01-26T06:13:32.391Z,101875.47
2023-01-26T06:16:02.515Z,101866.41
2023-01-26T06:18:29.456Z,101873.75
2023-01-26T06:21:00.868Z,101865.06
2023-01-26T06:23:30.542Z,101877.72
2023-01-26T06:26:01.566Z,101879.53
2023-01-26T06:28:34.067Z,101882.88
2023-01-26T06:31:02.993Z,101889.50
2023-01-26T06:33:35.110Z,101885.50
2023-01-26T06:36:13.396Z,101879.22
2023-01-26T06:38:46.860Z,101882.47
2023-01-26T06:41:13.953Z,101895.19
2023-01-26T06:43:45.257Z,101887.41
2023-01-26T06:46:14.929Z,101890.00
2023-01-26T06:48:44.344Z,101896.34
2023-01-26T06:51:20.147Z,101891.94
2023-01-26T06:54:00.110Z,101890.75
2023-01-26T06:56:28.592Z,101886.66
2023-01-26T06:58:58.549Z,101880.03
2023-01-26T07:01:26.992Z,101893.06
2023-01-26T07:03:55.472Z,101890.31
2023-01-26T07:06:22.399Z,101894.31
2023-01-26T07:08:52.375Z,101890.19
2023-01-26T07:11:20.159Z,101894.22
2023-01-26T07:13:52.224Z,101892.94
2023-01-26T07:16:21.757Z,101893.22
2023-01-26T07:18:48.713Z,101895.69
2023-01-26T07:21:18.841Z,101890.88
2023-01-26T07:23:51.026Z,101897.03
2023-01-26T07:26:18.683Z,101903.34
2023-01-26T07:28:47.783Z,101900.19
2023-01-26T07:31:15.154Z,101903.47
2023-01-26T07:33:42.288Z,101899.25
2023-01-26T07:36:10.984Z,101900.38
2023-01-26T07:38:40.622Z,101892.09
2023-01-26T07:41:11.604Z,101893.03
2023-01-26T07:43:44.648Z,101885.53
2023-01-26T07:46:12.203Z,101883.09
2023-01-26T07:48:40.794Z,101890.78
2023-01-26T07:51:09.345Z,101889.94
2023-01-26T07:53:43.534Z,101896.41
2023-01-26T07:56:16.576Z,101890.88
2023-01-26T07:58:45.662Z,101890.88
2023-01-26T08:01:15.225Z,101888.63
2023-01-26T08:03:49.450Z,101887.78
2023-01-26T08:06:17.378Z,101895.38
2023-01-26T08:08:51.297Z,101892.34
2023-01-26T08:11:19.764Z,101888.38
2023-01-26T08:13:51.383Z,101890.28
2023-01-26T08:16:20.854Z,101901.22
2023-01-26T08:18:50.454Z,101910.19
2023-01-26T08:21:19.234Z,101909.69
2023-01-26T08:23:50.753Z,101906.69
2023-01-26T08:26:21.122Z,101910.88
2023-01-26T08:28:50.564Z,101906.56
2023-01-26T08:31:20.986Z,101907.00
2023-01-26T08:33:52.558Z,101897.97
2023-01-26T08:36:22.297Z,101903.28
2023-01-26T08:38:52.402Z,101910.88
2023-01-26T08:41:19.258Z,101902.88
2023-01-26T08:43:48.982Z,101893.63
2023-01-26T08:46:16.186Z,101893.81
2023-01-26T08:48:47.801Z,101893.97
2023-01-26T08:51:14.791Z,101896.75
2023-01-26T08:53:41.711Z,101911.59
2023-01-26T08:56:12.204Z,101910.91
2023-01-26T08:58:40.563Z,101907.53
2023-01-26T09:01:12.126Z,101909.16
2023-01-26T09:03:39.325Z,101910.72
2023-01-26T09:06:09.299Z,101914.66
2023-01-26T09:08:38.823Z,101913.19
2023-01-26T09:11:07.330Z,101917.06
2023-01-26T09:13:34.376Z,101921.53
2023-01-26T09:16:05.945Z,101916.75
2023-01-26T09:18:35.865Z,101911.34
2023-01-26T09:21:09.183Z,101918.66
2023-01-26T09:23:38.821Z,101911.97
2023-01-26T09:26:05.836Z,101920.19
2023-01-26T09:28:32.840Z,101923.41
2023-01-26T09:31:11.427Z,101924.38
2023-01-26T09:33:38.477Z,101927.88
2023-01-26T09:36:09.187Z,101927.78
2023-01-26T09:38:36.283Z,101925.88
2023-01-26T09:41:47.308Z,101931.59
2023-01-26T09:44:24.163Z,101920.22
2023-01-26T09:46:58.063Z,101920.13
2023-01-26T09:49:50.197Z,101916.59
2023-01-26T09:52:39.659Z,101919.78
2023-01-26T09:55:16.940Z,101907.59
2023-01-26T09:58:04.488Z,101909.66
2023-01-26T10:00:49.004Z,101899.81
2023-01-26T10:03:24.636Z,101905.41
2023-01-26T10:06:07.806Z,101902.41
2023-01-26T10:08:37.294Z,101905.09
2023-01-26T10:11:15.891Z,101903.16
2023-01-26T10:13:56.902Z,101898.94
2023-01-26T10:16:25.255Z,101891.47
2023-01-26T10:19:02.045Z,101886.22
2023-01-26T10:21:41.259Z,101877.59
2023-01-26T10:24:11.446Z,101879.16
2023-01-26T10:26:38.435Z,101881.28
2023-01-26T10:29:05.368Z,101867.97
2023-01-26T10:31:37.279Z,101869.78
2023-01-26T10:34:23.873Z,101870.75
2023-01-26T10:36:53.802Z,101859.44
2023-01-26T10:39:20.732Z,101860.41
2023-01-26T10:42:05.280Z,101860.88
2023-01-26T10:44:37.730Z,101850.75
2023-01-26T10:47:13.421Z,101861.84
2023-01-26T10:49:42.542Z,101866.16
2023-01-26T10:52:25.465Z,101863.44
2023-01-26T10:55:20.105Z,101857.53
2023-01-26T10:57:47.045Z,101854.19
2023-01-26T11:00:29.460Z,101851.50
2023-01-26T11:03:19.942Z,101850.84
2023-01-26T11:06:05.817Z,101855.34
2023-01-26T11:08:36.620Z,101855.25
2023-01-26T11:11:10.342Z,101857.72
2023-01-26T11:13:37.931Z,101850.16
2023-01-26T11:16:34.108Z,101849.28
2023-01-26T11:19:35.198Z,101848.34
2023-01-26T11:22:47.512Z,101863.59
2023-01-26T11:25:59.452Z,101847.75
2023-01-26T11:28:53.007Z,101843.59
2023-01-26T11:32:12.063Z,101843.25
2023-01-26T11:34:50.784Z,101840.41
2023-01-26T11:37:42.147Z,101840.69
2023-01-26T11:40:44.758Z,101835.84
2023-01-26T11:43:30.881Z,101819.28
2023-01-26T11:46:16.508Z,101818.50
2023-01-26T11:49:33.277Z,101817.19
2023-01-26T11:52:18.943Z,101810.59
2023-01-26T11:55:25.077Z,101816.75
2023-01-26T11:58:05.340Z,101815.84
2023-01-26T12:00:43.192Z,101805.13
2023-01-26T12:03:46.987Z,101806.19
2023-01-26T12:06:45.589Z,101803.19
2023-01-26T12:09:38.202Z,101810.72
2023-01-26T12:12:42.886Z,101802.91
2023-01-26T12:15:37.373Z,101790.72
2023-01-26T12:18:42.153Z,101784.91
2023-01-26T12:21:20.418Z,101781.78
2023-01-26T12:24:07.283Z,101784.47
2023-01-26T12:26:50.710Z,101772.66
2023-01-26T12:29:41.678Z,101771.59
2023-01-26T12:32:17.590Z,101759.22
2023-01-26T12:34:47.288Z,101762.03
2023-01-26T12:38:17.859Z,101760.09
2023-01-26T12:41:27.023Z,101776.34
2023-01-26T12:44:36.016Z,101767.34
2023-01-26T12:47:48.736Z,101762.81
2023-01-26T12:50:57.357Z,101762.56
2023-01-26T12:53:34.454Z,101771.03
2023-01-26T12:56:33.758Z,101758.78
2023-01-26T12:59:13.584Z,101757.63
2023-01-26T13:01:59.434Z,101746.97
2023-01-26T13:04:26.643Z,101751.38
2023-01-26T13:07:24.822Z,101747.19
2023-01-26T13:10:20.326Z,101745.56
2023-01-26T13:13:25.557Z,101749.63
2023-01-26T13:16:17.656Z,101750.84
2023-01-26T13:18:58.757Z,101748.47
2023-01-26T13:21:43.908Z,101751.81
2023-01-26T13:24:17.296Z,101756.97
2023-01-26T13:27:00.776Z,101754.06
2023-01-26T13:29:36.263Z,101757.06
2023-01-26T13:32:23.445Z,101755.34
2023-01-26T13:34:59.119Z,101756.97
2023-01-26T13:37:42.493Z,101754.59
2023-01-26T13:40:33.661Z,101757.72
2023-01-26T13:43:30.923Z,101766.75
2023-01-26T13:46:06.731Z,101765.69
2023-01-26T13:48:53.858Z,101767.94
2023-01-26T13:51:30.562Z,101769.13
2023-01-26T13:53:59.515Z,101771.03
2023-01-26T13:56:34.974Z,101774.69
2023-01-26T13:59:11.744Z,101781.38
2023-01-26T14:01:48.540Z,101786.09
2023-01-26T14:04:24.817Z,101771.69
2023-01-26T14:07:15.790Z,101784.38
2023-01-26T14:09:52.664Z,101777.59
2023-01-26T14:12:28.656Z,101780.72
2023-01-26T14:15:03.401Z,101779.22
2023-01-26T14:17:46.332Z,101776.75
2023-01-26T14:20:33.952Z,101770.81
2023-01-26T14:23:15.472Z,101778.25
2023-01-26T14:25:49.105Z,101772.97
2023-01-26T14:28:21.309Z,101774.91
2023-01-26T14:30:55.930Z,101772.78
2023-01-26T14:33:25.061Z,101779.31
2023-01-26T14:35:59.601Z,101773.41
2023-01-26T14:38:29.785Z,101773.41
2023-01-26T14:41:00.222Z,101781.03
2023-01-26T14:43:28.073Z,101765.44
2023-01-26T14:46:41.218Z,101782.66
2023-01-26T14:49:30.264Z,101779.31
2023-01-26T14:52:02.935Z,101781.13
2023-01-26T14:54:39.454Z,101785.53
2023-01-26T14:57:09.539Z,101787.50
2023-01-26T14:59:39.885Z,101782.31
2023-01-26T15:02:46.548Z,101781.13
2023-01-26T15:05:23.687Z,101791.38
2023-01-26T15:07:55.896Z,101794.69
2023-01-26T15:10:36.634Z,101787.78
2023-01-26T15:13:15.836Z,101796.41
2023-01-26T15:15:49.419Z,101800.38
2023-01-26T15:18:23.121Z,101801.16
2023-01-26T15:21:19.263Z,101808.22
2023-01-26T15:23:53.019Z,101807.56
2023-01-26T15:26:58.485Z,101810.25
2023-01-26T15:29:31.920Z,101809.50
2023-01-26T15:32:03.906Z,101819.44
2023-01-26T15:34:38.516Z,101809.28
2023-01-26T15:37:33.519Z,101814.47
2023-01-26T15:40:05.836Z,101823.06
2023-01-26T15:42:35.856Z,101818.94
2023-01-26T15:45:25.404Z,101815.31
2023-01-26T15:47:54.987Z,101814.91
2023-01-26T15:50:27.875Z,101818.88
2023-01-26T15:52:55.288Z,101811.56
2023-01-26T15:55:31.833Z,101821.78
2023-01-26T15:58:00.923Z,101804.81
2023-01-26T16:00:27.925Z,101807.06
2023-01-26T16:02:55.066Z,101811.88
2023-01-26T16:05:24.247Z,101820.38
2023-01-26T16:07:56.698Z,101814.25
2023-01-26T16:10:26.147Z,101819.66
2023-01-26T16:12:57.661Z,101815.91
2023-01-26T16:15:39.853Z,101816.75
2023-01-26T16:18:06.884Z,101813.53
2023-01-26T16:20:36.417Z,101819.94
2023-01-26T16:23:03.657Z,101814.16
2023-01-26T16:25:33.102Z,101822.34
2023-01-26T16:28:02.513Z,101819.75
2023-01-26T16:30:29.370Z,101806.66
2023-01-26T16:32:56.251Z,101810.16
2023-01-26T16:35:24.157Z,101820.41
2023-01-26T16:37:51.393Z,101817.94
2023-01-26T16:40:19.434Z,101818.84
2023-01-26T16:42:51.603Z,101821.75
2023-01-26T16:45:26.731Z,101818.31
2023-01-26T16:47:59.770Z,101821.13
2023-01-26T16:50:31.475Z,101832.19
2023-01-26T16:52:58.659Z,101832.09
2023-01-26T16:55:25.546Z,101829.59
2023-01-26T16:57:52.570Z,101831.44
2023-01-26T17:00:24.590Z,101835.09
2023-01-26T17:02:57.091Z,101833.72
2023-01-26T17:05:23.960Z,101835.34
2023-01-26T17:07:51.031Z,101833.09
2023-01-26T17:10:18.802Z,101824.16
2023-01-26T17:12:48.254Z,101827.16
2023-01-26T17:15:15.297Z,101834.28
2023-01-26T17:17:42.610Z,101839.44
2023-01-26T17:20:19.341Z,101839.84
2023-01-26T17:22:48.878Z,101838.56
2023-01-26T17:25:19.536Z,101852.00
2023-01-26T17:27:49.760Z,101853.19
2023-01-26T17:30:20.617Z,101853.53
2023-01-26T17:32:54.697Z,101852.97
2023-01-26T17:35:22.695Z,101853.41
2023-01-26T17:37:49.767Z,101859.00
2023-01-26T17:40:19.399Z,101855.34
2023-01-26T17:42:50.945Z,101869.44
2023-01-26T17:45:17.891Z,101870.19
2023-01-26T17:47:44.864Z,101870.41
2023-01-26T17:50:14.159Z,101884.59
2023-01-26T17:52:41.075Z,101880.50
2023-01-26T17:55:09.754Z,101881.16
2023-01-26T17:57:39.189Z,101883.19
2023-01-26T18:00:09.258Z,101882.25
2023-01-26T18:02:39.913Z,101898.91
2023-01-26T18:05:08.934Z,101892.56
2023-01-26T18:07:40.537Z,101890.84
2023-01-26T18:10:08.743Z,101878.38
2023-01-26T18:12:37.737Z,101892.56
2023-01-26T18:15:08.006Z,101885.25
2023-01-26T18:17:36.742Z,101887.41
2023-01-26T18:20:07.741Z,101886.00
2023-01-26T18:22:34.770Z,101888.03
2023-01-26T18:25:01.758Z,101886.53
2023-01-26T18:27:28.854Z,101891.47
2023-01-26T18:29:55.754Z,101890.84
2023-01-26T18:32:25.729Z,101883.31
2023-01-26T18:34:52.738Z,101880.72
2023-01-26T18:37:19.684Z,101879.22
2023-01-26T18:39:48.956Z,101886.84
2023-01-26T18:42:16.301Z,101885.03
2023-01-26T18:44:43.466Z,101887.38
2023-01-26T18:47:10.406Z,101886.75
2023-01-26T18:49:37.393Z,101887.50
2023-01-26T18:52:06.835Z,101889.56
2023-01-26T18:54:34.117Z,101900.00
2023-01-26T18:57:00.984Z,101896.00
2023-01-26T18:59:27.909Z,101894.72
2023-01-26T19:01:55.489Z,101890.41
2023-01-26T19:04:22.618Z,101892.31
2023-01-26T19:06:49.605Z,101895.56
2023-01-26T19:09:16.572Z,101891.03
2023-01-26T19:12:11.162Z,101899.09
2023-01-26T19:14:40.720Z,101896.94
2023-01-26T19:17:07.651Z,101897.81
2023-01-26T19:19:34.596Z,101902.44
2023-01-26T19:22:02.987Z,101891.03
2023-01-26T19:24:30.084Z,101902.44
2023-01-26T19:26:57.001Z,101897.38
2023-01-26T19:29:23.944Z,101906.19
2023-01-26T19:31:50.920Z,101907.28
2023-01-26T19:34:28.222Z,101897.28
2023-01-26T19:36:55.295Z,101900.69
2023-01-26T19:39:25.519Z,101904.69
2023-01-26T19:41:52.541Z,101909.88
2023-01-26T19:44:22.688Z,101904.56
2023-01-26T19:46:57.388Z,101909.44
2023-01-26T19:49:26.342Z,101904.34
2023-01-26T19:51:54.533Z,101908.25
2023-01-26T19:54:24.243Z,101909.31
2023-01-26T19:56:54.497Z,101907.03
2023-01-26T19:59:23.274Z,101911.06
2023-01-26T20:01:53.991Z,101906.31
2023-01-26T20:04:24.369Z,101906.84
2023-01-26T20:06:54.371Z,101911.59
2023-01-26T20:09:24.489Z,101912.66
2023-01-26T20:11:52.912Z,101903.28
2023-01-26T20:14:21.919Z,101917.91
2023-01-26T20:16:48.934Z,101911.91
2023-01-26T20:19:16.923Z,101906.28
2023-01-26T20:21:46.336Z,101910.94
2023-01-26T20:24:16.625Z,101909.97
2023-01-26T20:26:45.158Z,101911.75
2023-01-26T20:29:15.489Z,101914.22
2023-01-26T20:31:46.523Z,101914.47
2023-01-26T20:34:21.232Z,101916.69
2023-01-26T20:36:48.904Z,101926.41
2023-01-26T20:39:27.312Z,101918.47
2023-01-26T20:41:57.276Z,101911.00
2023-01-26T20:44:24.504Z,101912.50
2023-01-26T20:46:59.748Z,101910.78
2023-01-26T20:49:26.933Z,101921.78
2023-01-26T20:51:56.554Z,101923.63
2023-01-26T20:54:23.646Z,101918.88
2023-01-26T20:56:51.402Z,101916.84
2023-01-26T20:59:19.082Z,101923.59
2023-01-26T21:01:46.352Z,101921.78
2023-01-26T21:04:16.356Z,101927.25
2023-01-26T21:06:43.399Z,101914.88
2023-01-26T21:09:13.490Z,101923.66
2023-01-26T21:11:43.830Z,101922.59
2023-01-26T21:14:15.423Z,101935.47
2023-01-26T21:16:44.861Z,101931.19
2023-01-26T21:19:11.841Z,101933.34
2023-01-26T21:21:38.844Z,101927.19
2023-01-26T21:24:09.318Z,101928.69
2023-01-26T21:26:38.495Z,101927.53
2023-01-26T21:29:06.227Z,101923.78
2023-01-26T21:31:36.466Z,101919.78
2023-01-26T21:34:05.564Z,101911.69
2023-01-26T21:36:35.246Z,101919.13
2023-01-26T21:39:03.653Z,101917.84
2023-01-26T21:41:52.475Z,101914.91
2023-01-26T21:44:25.343Z,101916.19
2023-01-26T21:47:04.887Z,101921.44
2023-01-26T21:49:36.715Z,101919.69
2023-01-26T21:52:24.912Z,101924.03
2023-01-26T21:54:53.180Z,101916.34
2023-01-26T21:57:39.971Z,101925.16
2023-01-26T22:00:16.481Z,101925.75
2023-01-26T22:02:48.432Z,101934.34
2023-01-26T22:05:17.091Z,101929.06
2023-01-26T22:07:46.792Z,101929.72
2023-01-26T22:10:16.119Z,101927.53
2023-01-26T22:12:46.776Z,101924.03
2023-01-26T22:15:15.655Z,101931.00
2023-01-26T22:17:43.831Z,101928.00
2023-01-26T22:20:13.862Z,101927.75
2023-01-26T22:22:45.443Z,101934.34
2023-01-26T22:25:22.540Z,101931.94
2023-01-26T22:27:52.136Z,101930.69
2023-01-26T22:30:20.445Z,101930.22
2023-01-26T22:32:47.354Z,101930.84
2023-01-26T22:35:14.318Z,101932.41
2023-01-26T22:37:41.479Z,101928.69
2023-01-26T22:40:09.562Z,101929.75
2023-01-26T22:42:36.571Z,101939.56
2023-01-26T22:45:03.964Z,101934.81
2023-01-26T22:47:33.026Z,101939.84
2023-01-26T22:50:02.312Z,101937.06
2023-01-26T22:52:29.856Z,101942.81
2023-01-26T22:54:59.004Z,101934.78
2023-01-26T22:57:28.999Z,101941.69
2023-01-26T22:59:58.338Z,101938.97
2023-01-26T23:02:25.617Z,101943.53
2023-01-26T23:04:54.748Z,101940.66
2023-01-26T23:07:21.743Z,101931.38
2023-01-26T23:09:48.760Z,101930.31
2023-01-26T23:12:15.754Z,101939.78
2023-01-26T23:14:42.809Z,101935.38
2023-01-26T23:17:11.806Z,101931.00
2023-01-26T23:19:39.006Z,101926.50
2023-01-26T23:22:06.120Z,101928.91
2023-01-26T23:24:33.134Z,101933.28
2023-01-26T23:27:00.140Z,101927.25
2023-01-26T23:29:27.209Z,101933.75
2023-01-26T23:31:54.355Z,101925.75
2023-01-26T23:34:24.127Z,101930.91
2023-01-26T23:36:51.121Z,101941.75
2023-01-26T23:39:18.225Z,101937.41
2023-01-26T23:41:45.246Z,101947.59
2023-01-26T23:44:16.869Z,101941.44
2023-01-26T23:46:44.056Z,101940.19
2023-01-26T23:49:11.250Z,101937.28
2023-01-26T23:51:40.293Z,101945.81
2023-01-26T23:54:07.291Z,101940.88
2023-01-26T23:56:34.339Z,101934.81
2023-01-26T23:59:03.843Z,101933.22
